Time;durP1;ratioP1;P1;durP2;ratioP2;P2;SDS_P1;SDS_P2;PMS_P1;PMS_P2;Temp;Humidity;BMP_temperature;BMP_pressure;BME280_temperature;BME280_humidity;BME280_pressure;Samples;Min_cycle;Max_cycle;Signal;HPM_P1;HPM_P2
2022/11/27 00:00:16;;;;;;;35.70;8.70;;;;;;;;;;5032296;28;20040;-79
2022/11/27 00:02:42;;;;;;;27.23;8.33;;;;;;;;;;5032350;28;20029;-80
2022/11/27 00:05:08;;;;;;;21.53;7.47;;;;;;;;;;5033901;28;20557;-79
2022/11/27 00:07:34;;;;;;;27.73;8.60;;;;;;;;;;5031482;28;20045;-80
2022/11/27 00:10:00;;;;;;;24.57;7.87;;;;;;;;;;5031348;28;20124;-79
2022/11/27 00:12:26;;;;;;;19.60;7.83;;;;;;;;;;5033288;28;20026;-79
2022/11/27 00:14:52;;;;;;;22.17;7.30;;;;;;;;;;5023361;28;20026;-79
2022/11/27 00:17:18;;;;;;;18.20;7.37;;;;;;;;;;5033499;28;20105;-79
2022/11/27 00:19:44;;;;;;;21.90;6.53;;;;;;;;;;5027794;28;20073;-79
2022/11/27 00:22:12;;;;;;;26.10;7.37;;;;;;;;;;5031923;28;20030;-78
2022/11/27 00:24:38;;;;;;;24.30;6.53;;;;;;;;;;5034168;28;20033;-78
2022/11/27 00:27:07;;;;;;;20.60;7.03;;;;;;;;;;5034655;28;20021;-78
2022/11/27 00:29:33;;;;;;;18.13;5.97;;;;;;;;;;5034083;28;20036;-79
2022/11/27 00:32:01;;;;;;;21.27;5.53;;;;;;;;;;5033677;28;20021;-79
2022/11/27 00:34:27;;;;;;;22.07;6.27;;;;;;;;;;5034693;28;20068;-79
2022/11/27 00:36:53;;;;;;;23.20;7.07;;;;;;;;;;5029344;28;20387;-79
2022/11/27 00:39:19;;;;;;;18.47;5.90;;;;;;;;;;5033579;28;20075;-80
2022/11/27 00:41:45;;;;;;;27.13;6.33;;;;;;;;;;5034094;28;20025;-79
2022/11/27 00:44:12;;;;;;;18.17;5.63;;;;;;;;;;5031505;28;20419;-78
2022/11/27 00:46:40;;;;;;;19.50;6.47;;;;;;;;;;5028214;28;20029;-79
2022/11/27 00:49:06;;;;;;;22.07;5.73;;;;;;;;;;5033705;28;20454;-80
2022/11/27 00:51:32;;;;;;;13.30;5.10;;;;;;;;;;5034028;28;20052;-79
2022/11/27 00:53:59;;;;;;;23.83;6.70;;;;;;;;;;5031348;28;20335;-79
2022/11/27 00:56:26;;;;;;;23.20;5.40;;;;;;;;;;5035586;28;20042;-79
2022/11/27 00:58:53;;;;;;;18.33;5.00;;;;;;;;;;5033735;28;20021;-79
2022/11/27 01:01:21;;;;;;;14.53;5.37;;;;;;;;;;5032842;28;20021;-79
2022/11/27 01:03:47;;;;;;;18.63;5.77;;;;;;;;;;5026928;28;20025;-79
2022/11/27 01:06:13;;;;;;;19.43;5.63;;;;;;;;;;5033461;28;20025;-78
2022/11/27 01:08:40;;;;;;;17.00;5.30;;;;;;;;;;5033600;28;20033;-79
2022/11/27 01:11:06;;;;;;;19.47;5.50;;;;;;;;;;5033441;28;20037;-80
2022/11/27 01:13:33;;;;;;;17.47;6.33;;;;;;;;;;5034183;28;20026;-79
2022/11/27 01:16:07;;;;;;;18.83;5.53;;;;;;;;;;5032828;28;20048;-80
2022/11/27 01:18:34;;;;;;;22.13;6.10;;;;;;;;;;5060303;28;20149;-80
2022/11/27 01:21:00;;;;;;;18.47;5.23;;;;;;;;;;5033367;28;20052;-78
2022/11/27 01:23:27;;;;;;;17.40;5.33;;;;;;;;;;5033614;28;20064;-79
2022/11/27 01:25:55;;;;;;;15.23;3.90;;;;;;;;;;5033547;28;20516;-79
2022/11/27 01:28:22;;;;;;;13.50;5.10;;;;;;;;;;5028590;28;20040;-79
2022/11/27 01:30:48;;;;;;;8.80;4.43;;;;;;;;;;5026575;28;20032;-79
2022/11/27 01:33:14;;;;;;;16.00;5.37;;;;;;;;;;5034520;28;20454;-79
2022/11/27 01:35:41;;;;;;;16.47;5.27;;;;;;;;;;5027477;28;20053;-78
2022/11/27 01:38:07;;;;;;;13.60;4.57;;;;;;;;;;5022521;28;20033;-77
2022/11/27 01:40:33;;;;;;;18.07;4.77;;;;;;;;;;5024336;28;20048;-78
2022/11/27 01:42:59;;;;;;;14.27;4.77;;;;;;;;;;5026474;28;20064;-77
2022/11/27 01:45:25;;;;;;;17.33;5.33;;;;;;;;;;5026989;28;20370;-78
2022/11/27 01:47:56;;;;;;;15.67;5.23;;;;;;;;;;5024853;28;20140;-79
2022/11/27 01:50:24;;;;;;;15.13;5.10;;;;;;;;;;5024853;28;20033;-79
2022/11/27 01:52:53;;;;;;;14.10;4.97;;;;;;;;;;5047663;28;20056;-78
2022/11/27 01:55:32;;;;;;;16.30;5.07;;;;;;;;;;5024524;28;20037;-78
2022/11/27 01:58:04;;;;;;;15.70;4.93;;;;;;;;;;5022826;28;20036;-79
2022/11/27 02:00:30;;;;;;;15.70;4.70;;;;;;;;;;5025250;28;20104;-77
2022/11/27 02:02:56;;;;;;;18.17;5.47;;;;;;;;;;5025339;28;20056;-78
2022/11/27 02:05:25;;;;;;;13.43;5.17;;;;;;;;;;5026522;28;20060;-79
2022/11/27 02:07:52;;;;;;;13.60;5.27;;;;;;;;;;5048289;28;20033;-77
2022/11/27 02:10:18;;;;;;;15.20;5.17;;;;;;;;;;5030971;28;20037;-78
2022/11/27 02:12:57;;;;;;;14.03;5.10;;;;;;;;;;5028358;28;20409;-77
2022/11/27 02:15:34;;;;;;;16.23;5.47;;;;;;;;;;5049867;28;20080;-77
2022/11/27 02:18:04;;;;;;;12.50;4.83;;;;;;;;;;5045547;28;20056;-79
2022/11/27 02:20:45;;;;;;;8.53;4.80;;;;;;;;;;5026234;28;20093;-78
2022/11/27 02:23:30;;;;;;;15.77;5.33;;;;;;;;;;5024629;28;20322;-79
2022/11/27 02:26:17;;;;;;;20.87;5.47;;;;;;;;;;5023245;28;20505;-79
2022/11/27 02:29:01;;;;;;;14.60;5.87;;;;;;;;;;5025890;28;20120;-79
2022/11/27 02:31:40;;;;;;;16.30;6.00;;;;;;;;;;5047320;28;20083;-78
2022/11/27 02:34:11;;;;;;;18.20;6.83;;;;;;;;;;5047838;28;20076;-79
2022/11/27 02:36:40;;;;;;;19.73;6.87;;;;;;;;;;5026657;28;20029;-79
2022/11/27 02:39:14;;;;;;;16.13;7.07;;;;;;;;;;5046895;28;20064;-79
2022/11/27 02:41:46;;;;;;;19.00;7.30;;;;;;;;;;5026854;28;20087;-78
2022/11/27 02:44:13;;;;;;;18.05;7.32;;;;;;;;;;5042824;28;20037;-79
2022/11/27 02:46:42;;;;;;;20.73;7.70;;;;;;;;;;5044167;28;20120;-77
2022/11/27 02:49:11;;;;;;;18.87;7.67;;;;;;;;;;5025111;28;20034;-79
2022/11/27 02:51:43;;;;;;;21.13;7.90;;;;;;;;;;5027141;28;20116;-77
2022/11/27 02:54:11;;;;;;;20.33;8.85;;;;;;;;;;5024983;28;20087;-78
2022/11/27 02:56:38;;;;;;;28.13;9.10;;;;;;;;;;5026570;28;20048;-79
2022/11/27 02:59:06;;;;;;;19.57;9.10;;;;;;;;;;5026611;28;20132;-79
2022/11/27 03:01:34;;;;;;;22.77;9.67;;;;;;;;;;5039863;28;20049;-78
2022/11/27 03:04:01;;;;;;;28.83;9.37;;;;;;;;;;5046781;28;20030;-77
2022/11/27 03:06:33;;;;;;;23.57;9.13;;;;;;;;;;5046404;28;20029;-79
2022/11/27 03:09:22;;;;;;;25.75;10.20;;;;;;;;;;5029107;28;20041;-79
2022/11/27 03:11:48;;;;;;;22.63;8.97;;;;;;;;;;5028160;28;20116;-76
2022/11/27 03:14:15;;;;;;;27.27;10.37;;;;;;;;;;5026785;28;20025;-78
2022/11/27 03:16:51;;;;;;;25.03;10.27;;;;;;;;;;5029060;28;20033;-79
2022/11/27 03:19:24;;;;;;;28.27;10.40;;;;;;;;;;5031002;28;20045;-78
2022/11/27 03:21:52;;;;;;;28.47;11.63;;;;;;;;;;5027737;28;20100;-78
2022/11/27 03:24:21;;;;;;;24.40;10.83;;;;;;;;;;5024827;28;20029;-78
2022/11/27 03:26:47;;;;;;;34.37;13.20;;;;;;;;;;5028376;28;20029;-78
2022/11/27 03:29:21;;;;;;;26.13;11.67;;;;;;;;;;5046736;28;20453;-79
2022/11/27 03:31:48;;;;;;;33.67;13.23;;;;;;;;;;5027131;28;20021;-79
2022/11/27 03:34:15;;;;;;;27.03;11.20;;;;;;;;;;5028123;28;20026;-78
2022/11/27 03:36:41;;;;;;;28.27;11.77;;;;;;;;;;5027087;28;20022;-79
2022/11/27 03:39:07;;;;;;;29.50;12.37;;;;;;;;;;5060196;28;20014;-79
2022/11/27 03:41:33;;;;;;;26.00;12.10;;;;;;;;;;5022401;28;20044;-79
2022/11/27 03:44:18;;;;;;;26.40;12.90;;;;;;;;;;5063345;28;20450;-79
2022/11/27 03:46:50;;;;;;;29.70;13.40;;;;;;;;;;5048005;28;20627;-78
2022/11/27 03:49:24;;;;;;;27.58;12.30;;;;;;;;;;5029467;28;20087;-79
2022/11/27 03:52:01;;;;;;;31.07;12.37;;;;;;;;;;5047531;28;20076;-79
2022/11/27 03:54:54;;;;;;;30.27;11.37;;;;;;;;;;5034479;28;20025;-78
2022/11/27 03:57:23;;;;;;;30.67;13.20;;;;;;;;;;5022209;28;20450;-78
2022/11/27 03:59:54;;;;;;;27.20;12.60;;;;;;;;;;5029849;28;20030;-79
2022/11/27 04:02:27;;;;;;;32.00;13.30;;;;;;;;;;5029996;28;20013;-79
2022/11/27 04:04:56;;;;;;;32.93;13.23;;;;;;;;;;5034665;28;20025;-78
2022/11/27 04:07:22;;;;;;;27.03;13.00;;;;;;;;;;5026610;28;20033;-78
2022/11/27 04:09:48;;;;;;;32.93;14.23;;;;;;;;;;5067395;28;20060;-79
2022/11/27 04:12:14;;;;;;;30.43;12.13;;;;;;;;;;5034658;28;20032;-78
2022/11/27 04:14:40;;;;;;;32.67;14.23;;;;;;;;;;5034624;28;20037;-78
2022/11/27 04:17:06;;;;;;;30.73;14.17;;;;;;;;;;5035336;28;20023;-78
2022/11/27 04:19:32;;;;;;;30.13;13.77;;;;;;;;;;5067976;28;20034;-78
2022/11/27 04:21:58;;;;;;;29.83;12.37;;;;;;;;;;5034663;28;20021;-79
2022/11/27 04:24:24;;;;;;;31.93;12.53;;;;;;;;;;5061941;28;20026;-79
2022/11/27 04:26:50;;;;;;;32.80;12.87;;;;;;;;;;5035350;28;20022;-78
2022/11/27 04:29:18;;;;;;;34.03;13.43;;;;;;;;;;5034111;28;20021;-78
2022/11/27 04:31:47;;;;;;;25.47;12.03;;;;;;;;;;5031778;28;20044;-78
2022/11/27 04:34:13;;;;;;;32.27;13.17;;;;;;;;;;5056165;28;20083;-78
2022/11/27 04:36:42;;;;;;;28.20;12.20;;;;;;;;;;5034130;28;20028;-77
2022/11/27 04:39:08;;;;;;;26.27;12.50;;;;;;;;;;5055343;28;20025;-77
2022/11/27 04:41:34;;;;;;;26.33;12.30;;;;;;;;;;5035829;28;20340;-78
2022/11/27 04:44:00;;;;;;;25.17;11.47;;;;;;;;;;5034988;28;20026;-77
2022/11/27 04:46:26;;;;;;;27.93;12.40;;;;;;;;;;5035801;28;20021;-79
2022/11/27 04:48:52;;;;;;;23.87;11.53;;;;;;;;;;5036419;28;20390;-79
2022/11/27 04:51:18;;;;;;;32.33;12.47;;;;;;;;;;5035948;28;20029;-79
2022/11/27 04:53:44;;;;;;;28.23;12.77;;;;;;;;;;5034814;28;20029;-78
2022/11/27 04:56:10;;;;;;;25.67;11.37;;;;;;;;;;5034966;28;20029;-79
2022/11/27 04:58:38;;;;;;;30.50;12.40;;;;;;;;;;5034898;28;20030;-78
2022/11/27 05:01:05;;;;;;;26.07;11.20;;;;;;;;;;5033158;28;20029;-78
2022/11/27 05:03:31;;;;;;;28.87;12.93;;;;;;;;;;5063459;28;20064;-78
2022/11/27 05:05:57;;;;;;;21.53;11.17;;;;;;;;;;5033944;28;20040;-77
2022/11/27 05:08:26;;;;;;;20.30;11.17;;;;;;;;;;5034972;28;20025;-78
2022/11/27 05:11:02;;;;;;;17.80;10.60;;;;;;;;;;5034574;28;20323;-78
2022/11/27 05:13:29;;;;;;;26.20;11.43;;;;;;;;;;5033273;28;20088;-77
2022/11/27 05:15:55;;;;;;;20.27;9.37;;;;;;;;;;5047273;28;20044;-78
2022/11/27 05:18:21;;;;;;;20.47;10.43;;;;;;;;;;5039341;28;20030;-78
2022/11/27 05:20:47;;;;;;;25.37;10.43;;;;;;;;;;5038686;28;20049;-79
2022/11/27 05:23:15;;;;;;;19.77;10.50;;;;;;;;;;5037598;28;20025;-78
2022/11/27 05:25:41;;;;;;;17.27;9.43;;;;;;;;;;5037681;28;20033;-78
2022/11/27 05:28:07;;;;;;;17.97;8.90;;;;;;;;;;5033170;28;20025;-78
2022/11/27 05:30:33;;;;;;;17.87;9.60;;;;;;;;;;5036502;28;20029;-78
2022/11/27 05:32:59;;;;;;;24.43;8.80;;;;;;;;;;5038736;28;20029;-78
2022/11/27 05:35:28;;;;;;;15.53;9.13;;;;;;;;;;5045577;28;20708;-78
2022/11/27 05:37:54;;;;;;;17.40;9.00;;;;;;;;;;5049357;28;20048;-78
2022/11/27 05:40:22;;;;;;;19.60;8.83;;;;;;;;;;5051205;28;20037;-78
2022/11/27 05:42:48;;;;;;;23.60;9.30;;;;;;;;;;5045908;28;20029;-78
2022/11/27 05:45:14;;;;;;;21.00;9.30;;;;;;;;;;5036874;28;20684;-78
2022/11/27 05:47:40;;;;;;;17.40;8.57;;;;;;;;;;5039865;28;20029;-78
2022/11/27 05:50:06;;;;;;;19.60;9.30;;;;;;;;;;5037823;28;20087;-78
2022/11/27 05:52:32;;;;;;;18.43;8.03;;;;;;;;;;5038676;28;20095;-77
2022/11/27 05:54:58;;;;;;;15.13;8.07;;;;;;;;;;5040174;28;20037;-78
2022/11/27 05:57:25;;;;;;;16.00;8.00;;;;;;;;;;5039878;28;20052;-77
2022/11/27 05:59:51;;;;;;;21.07;8.53;;;;;;;;;;5032013;28;20033;-78
2022/11/27 06:02:17;;;;;;;22.90;7.97;;;;;;;;;;5034399;28;20032;-78
2022/11/27 06:04:44;;;;;;;16.93;8.87;;;;;;;;;;5036458;28;20030;-77
2022/11/27 06:07:10;;;;;;;19.60;8.07;;;;;;;;;;5037164;28;20108;-78
2022/11/27 06:09:41;;;;;;;14.43;7.63;;;;;;;;;;5037312;28;20130;-78
2022/11/27 06:12:07;;;;;;;18.97;7.03;;;;;;;;;;5037325;28;20116;-78
2022/11/27 06:14:34;;;;;;;20.47;8.77;;;;;;;;;;5037955;28;20108;-78
2022/11/27 06:17:00;;;;;;;18.17;7.23;;;;;;;;;;5036612;28;20350;-79
2022/11/27 06:19:26;;;;;;;18.93;7.23;;;;;;;;;;5028291;28;20085;-78
2022/11/27 06:21:52;;;;;;;18.13;7.87;;;;;;;;;;5023063;28;20033;-77
2022/11/27 06:24:18;;;;;;;13.33;7.10;;;;;;;;;;5036546;28;20112;-79
2022/11/27 06:26:45;;;;;;;17.50;7.37;;;;;;;;;;5037408;28;20675;-78
2022/11/27 06:29:13;;;;;;;15.47;7.33;;;;;;;;;;5036788;28;20382;-78
2022/11/27 06:31:42;;;;;;;16.93;7.70;;;;;;;;;;5036632;28;20033;-77
2022/11/27 06:34:08;;;;;;;12.43;7.60;;;;;;;;;;5034229;28;20021;-79
2022/11/27 06:36:39;;;;;;;16.03;7.70;;;;;;;;;;5036243;28;20026;-78
2022/11/27 06:39:06;;;;;;;17.10;6.87;;;;;;;;;;5036999;28;20040;-78
2022/11/27 06:41:32;;;;;;;13.87;7.70;;;;;;;;;;5036640;28;20397;-78
2022/11/27 06:43:59;;;;;;;15.40;6.93;;;;;;;;;;5032086;28;20030;-78
2022/11/27 06:46:26;;;;;;;11.90;5.80;;;;;;;;;;5030880;28;20029;-78
2022/11/27 06:48:52;;;;;;;16.47;7.47;;;;;;;;;;5037015;28;20029;-77
2022/11/27 06:51:20;;;;;;;11.70;6.27;;;;;;;;;;5035975;28;20037;-77
2022/11/27 06:53:46;;;;;;;13.03;6.93;;;;;;;;;;5036145;28;20033;-78
2022/11/27 06:56:13;;;;;;;16.57;6.53;;;;;;;;;;5034413;28;20036;-78
2022/11/27 06:58:40;;;;;;;13.27;6.30;;;;;;;;;;5036809;28;20092;-78
2022/11/27 07:01:07;;;;;;;11.33;6.17;;;;;;;;;;5035555;28;20029;-77
2022/11/27 07:03:33;;;;;;;11.90;6.00;;;;;;;;;;5033064;28;20040;-77
2022/11/27 07:06:00;;;;;;;13.37;7.00;;;;;;;;;;5035555;28;20131;-77
2022/11/27 07:08:26;;;;;;;15.30;5.77;;;;;;;;;;5032853;28;20033;-77
2022/11/27 07:10:54;;;;;;;13.40;6.73;;;;;;;;;;5035558;28;20079;-78
2022/11/27 07:13:20;;;;;;;8.93;6.00;;;;;;;;;;5035576;28;20022;-78
2022/11/27 07:15:46;;;;;;;15.23;6.23;;;;;;;;;;5031589;28;20022;-78
2022/11/27 07:18:12;;;;;;;15.90;6.67;;;;;;;;;;5031933;28;20029;-78
2022/11/27 07:20:38;;;;;;;12.30;5.70;;;;;;;;;;5035283;28;20021;-78
2022/11/27 07:23:04;;;;;;;10.97;6.07;;;;;;;;;;5035563;28;20048;-78
2022/11/27 07:25:30;;;;;;;11.80;6.00;;;;;;;;;;5035025;28;20026;-78
2022/11/27 07:27:56;;;;;;;12.07;5.50;;;;;;;;;;5028157;28;20029;-78
2022/11/27 07:30:22;;;;;;;14.83;6.17;;;;;;;;;;5033792;28;20029;-79
2022/11/27 07:32:48;;;;;;;15.40;6.17;;;;;;;;;;5060260;28;20108;-78
2022/11/27 07:35:14;;;;;;;11.70;6.57;;;;;;;;;;5032383;28;20699;-78
2022/11/27 07:37:40;;;;;;;11.27;5.87;;;;;;;;;;5024179;28;20025;-75
2022/11/27 07:40:07;;;;;;;12.47;5.73;;;;;;;;;;5023032;28;20056;-77
2022/11/27 07:42:33;;;;;;;10.80;5.33;;;;;;;;;;5045216;28;20037;-78
2022/11/27 07:45:01;;;;;;;7.77;4.83;;;;;;;;;;5022886;28;20116;-77
2022/11/27 07:47:29;;;;;;;16.93;4.63;;;;;;;;;;5023660;28;20045;-77
2022/11/27 07:49:57;;;;;;;10.67;5.23;;;;;;;;;;5026208;28;20029;-77
2022/11/27 07:52:23;;;;;;;11.63;5.80;;;;;;;;;;5025120;28;20032;-77
2022/11/27 07:54:49;;;;;;;7.30;4.83;;;;;;;;;;5023639;28;20080;-77
2022/11/27 07:57:17;;;;;;;14.67;5.30;;;;;;;;;;5024755;28;20040;-77
2022/11/27 07:59:43;;;;;;;11.10;4.50;;;;;;;;;;5022739;28;20026;-76
2022/11/27 08:02:12;;;;;;;8.53;4.87;;;;;;;;;;5026864;28;20048;-78
2022/11/27 08:04:38;;;;;;;12.67;4.80;;;;;;;;;;5026740;28;20029;-77
2022/11/27 08:07:06;;;;;;;11.90;5.33;;;;;;;;;;5027503;28;20084;-78
2022/11/27 08:09:32;;;;;;;14.17;4.90;;;;;;;;;;5028637;28;20053;-78
2022/11/27 08:12:03;;;;;;;11.77;4.47;;;;;;;;;;5028860;28;20041;-80
2022/11/27 08:14:29;;;;;;;7.57;4.20;;;;;;;;;;5027817;28;20042;-76
2022/11/27 08:16:55;;;;;;;11.90;5.13;;;;;;;;;;5025177;28;20033;-77
2022/11/27 08:19:22;;;;;;;18.17;6.07;;;;;;;;;;5040096;28;20057;-77
2022/11/27 08:21:48;;;;;;;13.63;4.57;;;;;;;;;;5026943;28;20031;-76
2022/11/27 08:24:14;;;;;;;11.03;4.17;;;;;;;;;;5026152;28;20071;-75
2022/11/27 08:26:40;;;;;;;7.43;4.87;;;;;;;;;;5021823;28;20025;-77
2022/11/27 08:29:06;;;;;;;9.40;5.00;;;;;;;;;;5024688;28;20088;-77
2022/11/27 08:31:32;;;;;;;10.77;4.50;;;;;;;;;;5038443;28;20041;-76
2022/11/27 08:33:59;;;;;;;10.43;4.97;;;;;;;;;;5037191;28;20022;-77
2022/11/27 08:36:28;;;;;;;11.27;5.23;;;;;;;;;;5017892;28;20029;-76
2022/11/27 08:38:54;;;;;;;14.20;5.17;;;;;;;;;;5021884;28;20041;-78
2022/11/27 08:41:21;;;;;;;10.23;4.63;;;;;;;;;;5021488;28;20037;-76
2022/11/27 08:43:47;;;;;;;12.60;4.50;;;;;;;;;;5021199;28;20037;-77
2022/11/27 08:46:13;;;;;;;10.97;4.50;;;;;;;;;;5021452;28;20080;-75
2022/11/27 08:48:40;;;;;;;9.70;4.80;;;;;;;;;;5041601;28;20958;-75
2022/11/27 08:51:07;;;;;;;7.30;4.17;;;;;;;;;;5023616;28;20184;-78
2022/11/27 08:53:34;;;;;;;11.17;4.47;;;;;;;;;;5024623;28;20103;-76
2022/11/27 08:56:30;;;;;;;10.63;4.63;;;;;;;;;;5044134;28;20029;-76
2022/11/27 08:58:56;;;;;;;12.53;4.60;;;;;;;;;;5020421;28;20191;-77
2022/11/27 09:01:24;;;;;;;13.57;5.00;;;;;;;;;;5025746;28;20469;-76
2022/11/27 09:03:51;;;;;;;9.33;4.37;;;;;;;;;;5022877;28;20037;-78
2022/11/27 09:06:20;;;;;;;5.70;3.87;;;;;;;;;;5020359;28;20034;-76
2022/11/27 09:08:46;;;;;;;8.30;4.47;;;;;;;;;;5020364;28;20037;-78
2022/11/27 09:11:12;;;;;;;10.73;4.70;;;;;;;;;;5021871;28;20129;-77
2022/11/27 09:13:39;;;;;;;8.70;4.33;;;;;;;;;;5021144;28;20482;-75
2022/11/27 09:16:08;;;;;;;11.80;4.70;;;;;;;;;;5024379;28;20048;-78
2022/11/27 09:18:34;;;;;;;8.33;4.03;;;;;;;;;;5021824;28;20033;-76
2022/11/27 09:21:02;;;;;;;11.47;4.87;;;;;;;;;;5020599;28;20087;-78
2022/11/27 09:23:28;;;;;;;9.60;5.30;;;;;;;;;;5019674;28;20041;-77
2022/11/27 09:25:57;;;;;;;8.37;5.20;;;;;;;;;;5021428;28;20038;-77
2022/11/27 09:28:24;;;;;;;10.53;5.67;;;;;;;;;;5022879;28;20037;-78
2022/11/27 09:30:54;;;;;;;8.50;4.00;;;;;;;;;;5023243;28;20037;-78
2022/11/27 09:33:20;;;;;;;7.03;4.00;;;;;;;;;;5028163;28;20088;-78
2022/11/27 09:35:46;;;;;;;9.33;4.63;;;;;;;;;;5024669;28;20045;-78
2022/11/27 09:38:12;;;;;;;7.87;4.97;;;;;;;;;;5022496;28;20053;-77
2022/11/27 09:40:43;;;;;;;11.87;4.90;;;;;;;;;;5026636;28;20021;-78
2022/11/27 09:43:11;;;;;;;8.87;4.57;;;;;;;;;;5048500;28;20044;-76
2022/11/27 09:45:41;;;;;;;9.90;5.57;;;;;;;;;;5044604;28;20026;-78
2022/11/27 09:48:12;;;;;;;10.27;4.93;;;;;;;;;;5031768;28;20049;-77
2022/11/27 09:50:49;;;;;;;14.23;5.73;;;;;;;;;;5047228;28;20121;-78
2022/11/27 09:53:18;;;;;;;8.23;5.23;;;;;;;;;;5030928;28;20021;-78
2022/11/27 09:55:45;;;;;;;10.43;5.67;;;;;;;;;;5028846;28;20049;-78
2022/11/27 09:58:32;;;;;;;11.70;5.50;;;;;;;;;;5035670;28;20116;-78
2022/11/27 10:00:58;;;;;;;7.50;4.40;;;;;;;;;;5058373;28;20025;-78
2022/11/27 10:03:26;;;;;;;11.10;4.73;;;;;;;;;;5036611;28;20057;-78
2022/11/27 10:06:10;;;;;;;11.33;4.93;;;;;;;;;;5034289;28;20497;-78
2022/11/27 10:08:45;;;;;;;8.13;4.77;;;;;;;;;;5037674;28;20346;-78
2022/11/27 10:11:29;;;;;;;9.70;5.40;;;;;;;;;;5042334;28;20028;-78
2022/11/27 10:13:55;;;;;;;13.50;5.13;;;;;;;;;;5036883;28;20036;-78
2022/11/27 10:16:42;;;;;;;12.23;6.63;;;;;;;;;;5037224;28;20358;-78
2022/11/27 10:19:26;;;;;;;16.47;6.13;;;;;;;;;;5051554;28;20037;-78
2022/11/27 10:22:15;;;;;;;10.83;6.13;;;;;;;;;;5051776;28;20030;-77
2022/11/27 10:25:00;;;;;;;11.33;5.20;;;;;;;;;;5060107;28;20076;-79
2022/11/27 10:27:29;;;;;;;8.23;5.07;;;;;;;;;;5035291;28;20033;-78
2022/11/27 10:29:55;;;;;;;12.60;6.10;;;;;;;;;;5036737;28;20374;-79
2022/11/27 10:32:24;;;;;;;11.07;5.57;;;;;;;;;;5035620;28;20103;-77
2022/11/27 10:34:57;;;;;;;11.53;5.17;;;;;;;;;;5031946;28;20033;-77
2022/11/27 10:37:26;;;;;;;9.27;4.97;;;;;;;;;;5033360;28;20022;-79
2022/11/27 10:40:07;;;;;;;12.53;5.03;;;;;;;;;;5035979;28;20053;-79
2022/11/27 10:42:39;;;;;;;10.23;5.03;;;;;;;;;;5062800;28;20025;-79
2022/11/27 10:45:06;;;;;;;10.60;4.53;;;;;;;;;;5033981;28;20108;-78
2022/11/27 10:47:33;;;;;;;6.90;4.13;;;;;;;;;;5033516;28;20025;-78
2022/11/27 10:49:59;;;;;;;8.07;4.60;;;;;;;;;;5035618;28;20025;-78
2022/11/27 10:52:25;;;;;;;9.57;5.03;;;;;;;;;;5031141;28;20026;-79
2022/11/27 10:55:02;;;;;;;7.97;4.40;;;;;;;;;;5035662;28;20098;-78
2022/11/27 10:57:44;;;;;;;16.93;5.77;;;;;;;;;;5033243;28;20036;-78
2022/11/27 11:00:18;;;;;;;8.93;4.50;;;;;;;;;;5030298;28;20091;-77
2022/11/27 11:02:45;;;;;;;8.37;4.67;;;;;;;;;;5024682;28;20097;-79
2022/11/27 11:05:22;;;;;;;9.97;4.33;;;;;;;;;;5035020;28;20434;-78
2022/11/27 11:07:56;;;;;;;8.30;3.90;;;;;;;;;;5034214;28;20040;-77
2022/11/27 11:10:29;;;;;;;9.17;5.00;;;;;;;;;;5032707;28;20021;-78
2022/11/27 11:15:31;;;;;;;6.27;3.77;;;;;;;;;;5769544;22;20032;-76
2022/11/27 11:17:57;;;;;;;10.50;3.83;;;;;;;;;;5054047;28;20071;-77
2022/11/27 11:20:24;;;;;;;7.70;4.07;;;;;;;;;;5038261;28;20040;-79
2022/11/27 11:22:50;;;;;;;6.87;3.53;;;;;;;;;;5061860;28;20036;-79
2022/11/27 11:25:18;;;;;;;10.90;4.30;;;;;;;;;;5071524;28;20032;-79
2022/11/27 11:27:44;;;;;;;5.97;3.37;;;;;;;;;;5053006;28;20028;-79
2022/11/27 11:30:21;;;;;;;6.57;3.30;;;;;;;;;;5071941;28;20040;-78
2022/11/27 11:32:50;;;;;;;9.97;3.53;;;;;;;;;;5068631;28;20042;-78
2022/11/27 11:35:27;;;;;;;6.13;3.33;;;;;;;;;;5070790;28;20089;-76
2022/11/27 11:37:56;;;;;;;6.77;3.23;;;;;;;;;;5069295;28;20029;-77
2022/11/27 11:40:24;;;;;;;9.23;3.50;;;;;;;;;;5070237;28;20028;-78
2022/11/27 11:42:58;;;;;;;6.97;3.40;;;;;;;;;;5054777;28;20151;-77
2022/11/27 11:45:25;;;;;;;7.87;3.83;;;;;;;;;;5069124;28;20638;-78
2022/11/27 11:47:51;;;;;;;7.63;3.50;;;;;;;;;;5071687;28;20089;-77
2022/11/27 11:50:27;;;;;;;11.70;3.77;;;;;;;;;;5072235;28;20087;-77
2022/11/27 11:53:02;;;;;;;9.20;4.10;;;;;;;;;;5067780;28;20020;-76
2022/11/27 11:55:35;;;;;;;9.70;3.63;;;;;;;;;;5075242;28;20428;-77
2022/11/27 11:58:09;;;;;;;8.67;3.60;;;;;;;;;;5049474;28;20025;-77
2022/11/27 12:00:48;;;;;;;7.77;3.40;;;;;;;;;;5070159;28;20476;-77
2022/11/27 12:03:14;;;;;;;9.37;3.73;;;;;;;;;;5074186;28;20021;-76
2022/11/27 12:05:51;;;;;;;8.07;3.40;;;;;;;;;;5056077;28;20052;-76
2022/11/27 12:08:25;;;;;;;8.37;4.07;;;;;;;;;;5073045;28;20028;-76
2022/11/27 12:11:06;;;;;;;10.63;4.13;;;;;;;;;;5072367;28;20520;-77
2022/11/27 12:13:51;;;;;;;6.33;3.57;;;;;;;;;;5070967;28;20040;-78
2022/11/27 12:16:32;;;;;;;7.57;3.33;;;;;;;;;;5072771;28;20028;-77
2022/11/27 12:19:17;;;;;;;10.37;4.47;;;;;;;;;;5064816;28;20036;-78
2022/11/27 12:22:02;;;;;;;7.87;3.53;;;;;;;;;;5050708;28;20036;-78
2022/11/27 12:24:31;;;;;;;6.03;3.53;;;;;;;;;;5048826;28;20052;-78
2022/11/27 12:27:17;;;;;;;6.00;3.70;;;;;;;;;;5051298;28;20040;-77
2022/11/27 12:30:06;;;;;;;8.37;3.60;;;;;;;;;;5044012;28;20071;-78
2022/11/27 12:32:38;;;;;;;8.43;3.20;;;;;;;;;;5057932;28;20436;-76
2022/11/27 12:35:31;;;;;;;11.55;3.47;;;;;;;;;;5052169;28;20033;-78
2022/11/27 12:38:06;;;;;;;7.15;3.53;;;;;;;;;;5047786;28;20024;-76
2022/11/27 12:40:32;;;;;;;6.80;3.40;;;;;;;;;;5050622;28;20698;-77
2022/11/27 12:43:01;;;;;;;9.60;4.03;;;;;;;;;;5047777;28;20454;-78
2022/11/27 12:45:32;;;;;;;12.97;3.77;;;;;;;;;;5064585;28;20043;-77
2022/11/27 12:48:02;;;;;;;6.47;3.77;;;;;;;;;;5049248;28;20025;-77
2022/11/27 12:50:37;;;;;;;10.83;4.00;;;;;;;;;;5059818;28;20025;-77
2022/11/27 12:53:27;;;;;;;6.13;3.00;;;;;;;;;;5059488;28;20037;-77
2022/11/27 12:56:02;;;;;;;7.43;3.13;;;;;;;;;;5030619;28;20040;-78
2022/11/27 12:58:32;;;;;;;5.77;3.33;;;;;;;;;;5049730;28;20033;-76
2022/11/27 13:01:04;;;;;;;7.73;3.27;;;;;;;;;;5059784;28;20044;-77
2022/11/27 13:03:34;;;;;;;8.50;3.28;;;;;;;;;;5050568;28;20131;-78
2022/11/27 13:06:07;;;;;;;9.30;3.87;;;;;;;;;;5049868;28;20033;-78
2022/11/27 13:08:33;;;;;;;;;;;;;;;;;;5049590;28;20067;-77
2022/11/27 13:11:07;;;;;;;5.53;3.43;;;;;;;;;;5066886;28;20250;-78
2022/11/27 13:13:33;;;;;;;8.03;3.80;;;;;;;;;;5049121;28;20457;-77
2022/11/27 13:16:10;;;;;;;6.60;3.50;;;;;;;;;;5052380;28;20096;-77
2022/11/27 13:18:39;;;;;;;5.93;3.07;;;;;;;;;;5042307;28;20043;-78
2022/11/27 13:21:08;;;;;;;6.37;3.37;;;;;;;;;;5062047;28;20033;-76
2022/11/27 13:23:34;;;;;;;6.90;3.13;;;;;;;;;;5068480;28;20035;-76
2022/11/27 13:26:05;;;;;;;6.57;3.00;;;;;;;;;;5066380;28;20060;-77
2022/11/27 13:28:34;;;;;;;4.93;2.60;;;;;;;;;;5048266;28;20038;-78
2022/11/27 13:31:00;;;;;;;5.73;3.40;;;;;;;;;;5086097;28;20406;-77
2022/11/27 13:33:32;;;;;;;6.47;3.30;;;;;;;;;;5068067;28;20029;-77
2022/11/27 13:35:58;;;;;;;;;;;;;;;;;;5072324;28;20167;-79
2022/11/27 13:38:25;;;;;;;6.13;3.03;;;;;;;;;;5057875;28;19987;-77
2022/11/27 13:40:53;;;;;;;5.63;3.23;;;;;;;;;;5071942;28;20020;-77
2022/11/27 13:43:19;;;;;;;7.03;3.20;;;;;;;;;;5065314;28;20032;-78
2022/11/27 13:45:46;;;;;;;7.87;3.00;;;;;;;;;;5072806;28;20054;-77
2022/11/27 13:48:32;;;;;;;4.70;2.97;;;;;;;;;;5072636;28;20031;-78
2022/11/27 13:50:59;;;;;;;4.53;2.67;;;;;;;;;;5061191;28;20032;-76
2022/11/27 13:53:38;;;;;;;8.27;3.53;;;;;;;;;;5072441;28;20421;-78
2022/11/27 13:56:06;;;;;;;6.43;2.93;;;;;;;;;;5052672;28;20021;-78
2022/11/27 13:58:36;;;;;;;9.47;3.50;;;;;;;;;;5072526;28;20058;-77
2022/11/27 14:01:19;;;;;;;5.70;3.07;;;;;;;;;;5070667;28;20032;-80
2022/11/27 14:03:46;;;;;;;5.17;2.23;;;;;;;;;;5073786;28;20032;-77
2022/11/27 14:06:28;;;;;;;4.13;2.23;;;;;;;;;;5073587;28;20040;-78
2022/11/27 14:08:59;;;;;;;5.55;2.80;;;;;;;;;;5057376;28;20093;-77
2022/11/27 14:11:34;;;;;;;6.47;3.20;;;;;;;;;;5072397;28;20085;-77
2022/11/27 14:14:01;;;;;;;6.20;2.90;;;;;;;;;;5051174;28;20025;-79
2022/11/27 14:16:31;;;;;;;10.07;3.03;;;;;;;;;;5056076;28;20027;-76
2022/11/27 14:18:59;;;;;;;5.50;3.00;;;;;;;;;;5070243;28;20109;-76
2022/11/27 14:21:37;;;;;;;6.80;2.87;;;;;;;;;;5071610;28;20044;-77
2022/11/27 14:24:05;;;;;;;5.97;3.13;;;;;;;;;;5072719;28;20649;-77
2022/11/27 14:26:32;;;;;;;6.03;3.43;;;;;;;;;;5068150;28;20036;-75
2022/11/27 14:28:59;;;;;;;6.97;2.83;;;;;;;;;;5056095;28;20036;-76
2022/11/27 14:31:25;;;;;;;8.07;3.50;;;;;;;;;;5055136;28;20202;-78
2022/11/27 14:33:51;;;;;;;5.87;2.90;;;;;;;;;;5058261;28;20038;-77
2022/11/27 14:36:21;;;;;;;8.40;3.53;;;;;;;;;;5058236;28;20032;-77
2022/11/27 14:38:48;;;;;;;6.57;3.50;;;;;;;;;;5073483;28;20025;-77
2022/11/27 14:41:21;;;;;;;8.33;3.70;;;;;;;;;;5058244;28;20035;-77
2022/11/27 14:43:48;;;;;;;5.40;3.13;;;;;;;;;;5071374;28;20033;-76
2022/11/27 14:46:15;;;;;;;6.87;3.97;;;;;;;;;;5058599;28;20036;-75
2022/11/27 14:48:57;;;;;;;10.00;4.47;;;;;;;;;;5072061;28;20036;-76